createdAt,value
2022-09-15T00:02:11.323Z,62.77
2022-09-15T00:04:41.876Z,62.58
2022-09-15T00:07:12.397Z,62.57
2022-09-15T00:09:42.921Z,62.56
2022-09-15T00:12:13.390Z,62.53
2022-09-15T00:14:44.095Z,62.53
2022-09-15T00:17:14.461Z,62.56
2022-09-15T00:19:45.101Z,62.45
2022-09-15T00:22:17.102Z,62.36
2022-09-15T00:24:49.557Z,62.32
2022-09-15T00:27:20.010Z,62.07
2022-09-15T00:29:50.426Z,62.09
2022-09-15T00:32:23.219Z,62.26
2022-09-15T00:34:53.834Z,62.41
2022-09-15T00:37:24.577Z,62.46
2022-09-15T00:39:55.813Z,62.66
2022-09-15T00:42:26.243Z,62.72
2022-09-15T00:44:58.896Z,62.79
2022-09-15T00:47:31.086Z,62.75
2022-09-15T00:50:04.043Z,62.70
2022-09-15T00:52:36.857Z,62.65
2022-09-15T00:55:09.845Z,62.92
2022-09-15T00:57:38.625Z,62.80
2022-09-15T01:00:11.762Z,62.97
2022-09-15T01:02:40.564Z,62.78
2022-09-15T01:05:13.039Z,62.88
2022-09-15T01:07:44.630Z,62.90
2022-09-15T01:10:17.228Z,62.80
2022-09-15T01:12:48.407Z,63.11
2022-09-15T01:15:19.991Z,63.24
2022-09-15T01:17:55.911Z,63.17
2022-09-15T01:20:43.399Z,62.84
2022-09-15T01:23:31.807Z,62.85
2022-09-15T01:26:17.278Z,62.66
2022-09-15T01:28:59.262Z,62.73
2022-09-15T01:31:31.169Z,62.80
2022-09-15T01:34:03.946Z,62.89
2022-09-15T01:36:34.272Z,62.81
2022-09-15T01:39:06.642Z,63.06
2022-09-15T01:41:39.260Z,63.30
2022-09-15T01:44:11.285Z,63.42
2022-09-15T01:46:47.384Z,63.46
2022-09-15T01:49:19.316Z,63.35
2022-09-15T01:51:50.561Z,63.19
2022-09-15T01:54:22.663Z,63.13
2022-09-15T01:56:53.298Z,63.14
2022-09-15T01:59:24.031Z,63.30
2022-09-15T02:01:59.245Z,63.60
2022-09-15T02:04:32.307Z,63.66
2022-09-15T02:07:01.604Z,63.78
2022-09-15T02:09:34.895Z,64.46
2022-09-15T02:12:09.263Z,64.25
2022-09-15T02:14:44.049Z,64.48
2022-09-15T02:17:16.419Z,64.57
2022-09-15T02:19:51.785Z,65.25
2022-09-15T02:22:27.302Z,65.05
2022-09-15T02:25:03.228Z,65.22
2022-09-15T02:27:35.409Z,65.28
2022-09-15T02:30:07.214Z,65.33
2022-09-15T02:32:38.862Z,64.93
2022-09-15T02:35:11.007Z,64.66
2022-09-15T02:37:41.676Z,64.46
2022-09-15T02:40:12.611Z,64.22
2022-09-15T02:42:52.812Z,64.07
2022-09-15T02:45:24.843Z,63.82
2022-09-15T02:47:56.340Z,64.33
2022-09-15T02:50:27.657Z,64.82
2022-09-15T02:52:58.698Z,64.89
2022-09-15T02:55:29.428Z,64.91
2022-09-15T02:58:00.820Z,65.11
2022-09-15T03:00:31.768Z,65.25
2022-09-15T03:03:02.287Z,65.18
2022-09-15T03:05:32.919Z,65.11
2022-09-15T03:08:04.186Z,64.88
2022-09-15T03:10:34.668Z,64.59
2022-09-15T03:13:05.005Z,64.72
2022-09-15T03:15:35.636Z,65.00
2022-09-15T03:18:06.471Z,65.03
2022-09-15T03:20:37.722Z,64.16
2022-09-15T03:23:08.454Z,64.12
2022-09-15T03:25:39.113Z,64.85
2022-09-15T03:28:09.402Z,65.21
2022-09-15T03:30:40.135Z,65.66
2022-09-15T03:33:10.466Z,66.24
2022-09-15T03:35:41.086Z,66.41
2022-09-15T03:38:11.722Z,66.15
2022-09-15T03:40:43.480Z,66.44
2022-09-15T03:43:18.555Z,66.69
2022-09-15T03:45:49.400Z,66.29
2022-09-15T03:48:20.596Z,66.11
2022-09-15T03:50:53.238Z,66.56
2022-09-15T03:53:23.805Z,66.44
2022-09-15T03:55:54.630Z,66.32
2022-09-15T03:58:28.897Z,66.14
2022-09-15T04:01:01.197Z,65.86
2022-09-15T04:03:31.950Z,65.45
2022-09-15T04:06:03.813Z,65.30
2022-09-15T04:08:34.444Z,65.43
2022-09-15T04:11:07.103Z,65.51
2022-09-15T04:13:37.651Z,65.26
2022-09-15T04:16:09.821Z,65.40
2022-09-15T04:18:40.664Z,66.19
2022-09-15T04:21:13.998Z,65.81
2022-09-15T04:23:44.714Z,64.74
2022-09-15T04:26:18.941Z,65.43
2022-09-15T04:28:49.466Z,65.73
2022-09-15T04:31:20.638Z,65.92
2022-09-15T04:33:53.148Z,65.98
2022-09-15T04:36:25.150Z,65.97
2022-09-15T04:38:56.707Z,66.07
2022-09-15T04:41:27.758Z,66.40
2022-09-15T04:43:58.949Z,66.41
2022-09-15T04:46:30.040Z,66.04
2022-09-15T04:49:00.612Z,65.34
2022-09-15T04:51:31.344Z,65.01
2022-09-15T04:54:01.673Z,64.72
2022-09-15T04:56:32.544Z,65.01
2022-09-15T04:59:04.277Z,64.49
2022-09-15T05:01:36.372Z,64.25
2022-09-15T05:04:06.751Z,64.46
2022-09-15T05:06:37.996Z,64.75
2022-09-15T05:09:10.606Z,65.22
2022-09-15T05:11:41.571Z,65.69
2022-09-15T05:14:12.825Z,65.71
2022-09-15T05:16:43.673Z,65.96
2022-09-15T05:19:14.116Z,65.79
2022-09-15T05:21:44.890Z,66.82
2022-09-15T05:24:15.790Z,67.06
2022-09-15T05:26:46.726Z,66.67
2022-09-15T05:29:17.354Z,66.23
2022-09-15T05:31:47.954Z,65.12
2022-09-15T05:34:18.624Z,65.00
2022-09-15T05:36:49.150Z,64.85
2022-09-15T05:39:21.272Z,65.61
2022-09-15T05:41:51.649Z,65.58
2022-09-15T05:44:22.343Z,65.17
2022-09-15T05:46:53.767Z,65.27
2022-09-15T05:49:24.355Z,65.45
2022-09-15T05:51:54.876Z,65.56
2022-09-15T05:54:25.113Z,64.81
2022-09-15T05:56:55.935Z,65.47
2022-09-15T05:59:26.166Z,66.68
2022-09-15T06:01:57.055Z,66.62
2022-09-15T06:04:27.422Z,67.45
2022-09-15T06:06:58.268Z,68.03
2022-09-15T06:09:28.980Z,67.81
2022-09-15T06:11:59.818Z,68.05
2022-09-15T06:14:30.158Z,67.16
2022-09-15T06:17:00.774Z,66.58
2022-09-15T06:19:31.103Z,66.46
2022-09-15T06:22:01.932Z,66.26
2022-09-15T06:24:32.459Z,66.47
2022-09-15T06:27:03.012Z,65.96
2022-09-15T06:29:33.638Z,65.34
2022-09-15T06:32:05.890Z,65.11
2022-09-15T06:34:36.520Z,64.46
2022-09-15T06:37:08.170Z,65.27
2022-09-15T06:39:39.053Z,65.36
2022-09-15T06:42:13.692Z,64.96
2022-09-15T06:44:44.949Z,65.49
2022-09-15T06:47:17.098Z,64.89
2022-09-15T06:49:47.376Z,63.74
2022-09-15T06:52:18.205Z,63.31
2022-09-15T06:54:49.394Z,63.45
2022-09-15T06:57:20.228Z,63.11
2022-09-15T06:59:50.451Z,63.09
2022-09-15T07:02:21.284Z,63.34
2022-09-15T07:04:51.942Z,63.38
2022-09-15T07:07:22.501Z,62.78
2022-09-15T07:09:53.034Z,61.66
2022-09-15T07:12:24.086Z,59.89
2022-09-15T07:14:54.806Z,64.14
2022-09-15T07:17:26.670Z,64.07
2022-09-15T07:19:57.649Z,62.73
2022-09-15T07:22:28.236Z,62.64
2022-09-15T07:24:58.666Z,62.88
2022-09-15T07:27:31.951Z,62.00
2022-09-15T07:30:02.686Z,60.47
2022-09-15T07:32:33.014Z,61.06
2022-09-15T07:35:03.805Z,61.79
2022-09-15T07:37:34.533Z,61.90
2022-09-15T07:40:05.880Z,61.29
2022-09-15T07:42:36.386Z,62.72
2022-09-15T07:45:08.159Z,63.47
2022-09-15T07:47:38.740Z,63.03
2022-09-15T07:50:09.537Z,60.70
2022-09-15T07:52:39.962Z,60.37
2022-09-15T07:55:10.885Z,61.64
2022-09-15T07:57:41.537Z,62.84
2022-09-15T08:00:12.793Z,63.35
2022-09-15T08:02:43.444Z,64.44
2022-09-15T08:05:13.868Z,65.17
2022-09-15T08:07:44.505Z,65.25
2022-09-15T08:10:15.080Z,65.56
2022-09-15T08:12:45.661Z,65.50
2022-09-15T08:15:16.286Z,66.54
2022-09-15T08:17:47.915Z,66.83
2022-09-15T08:20:18.472Z,67.36
2022-09-15T08:22:48.843Z,67.53
2022-09-15T08:25:19.802Z,67.80
2022-09-15T08:27:51.370Z,68.48
2022-09-15T08:30:22.730Z,68.40
2022-09-15T08:32:53.371Z,67.82
2022-09-15T08:35:23.999Z,67.06
2022-09-15T08:37:56.160Z,66.35
2022-09-15T08:40:27.975Z,65.42
2022-09-15T08:43:00.700Z,65.76
2022-09-15T08:45:34.611Z,64.52
2022-09-15T08:48:08.624Z,64.64
2022-09-15T08:50:39.103Z,64.73
2022-09-15T08:53:13.403Z,65.40
2022-09-15T08:55:49.611Z,62.61
2022-09-15T08:58:20.970Z,62.07
2022-09-15T09:00:53.340Z,62.67
2022-09-15T09:03:43.330Z,63.58
2022-09-15T09:06:17.594Z,64.07
2022-09-15T09:09:01.614Z,62.93
2022-09-15T09:11:40.056Z,63.37
2022-09-15T09:14:14.469Z,64.46
2022-09-15T09:16:50.280Z,63.81
2022-09-15T09:19:32.493Z,62.82
2022-09-15T09:22:04.371Z,62.59
2022-09-15T09:24:38.037Z,63.38
2022-09-15T09:27:11.904Z,63.47
2022-09-15T09:29:44.971Z,62.09
2022-09-15T09:32:13.817Z,62.59
2022-09-15T09:34:47.238Z,62.66
2022-09-15T09:37:18.476Z,61.40
2022-09-15T09:39:49.129Z,61.99
2022-09-15T09:42:20.257Z,62.86
2022-09-15T09:44:51.307Z,60.80
2022-09-15T09:47:22.522Z,61.01
2022-09-15T09:49:52.951Z,65.07
2022-09-15T09:52:35.279Z,65.92
2022-09-15T09:55:24.267Z,62.43
2022-09-15T09:57:55.047Z,61.96
2022-09-15T10:00:36.219Z,62.04
2022-09-15T10:03:12.894Z,61.63
2022-09-15T10:05:44.136Z,61.13
2022-09-15T10:08:19.562Z,62.25
2022-09-15T10:10:54.618Z,62.56
2022-09-15T10:13:25.130Z,61.52
2022-09-15T10:15:56.453Z,59.83
2022-09-15T10:18:30.200Z,61.54
2022-09-15T10:21:01.713Z,64.30
2022-09-15T10:23:33.503Z,62.58
2022-09-15T10:26:17.550Z,62.20
2022-09-15T10:39:07.633Z,63.01
2022-09-15T10:41:41.202Z,63.51
2022-09-15T10:44:27.434Z,64.15
2022-09-15T10:47:03.473Z,63.85
2022-09-15T10:49:40.308Z,64.29
2022-09-15T10:52:13.900Z,63.77
2022-09-15T10:54:57.480Z,60.07
2022-09-15T10:57:40.290Z,62.82
2022-09-15T11:00:13.237Z,63.12
2022-09-15T11:02:42.052Z,63.64
2022-09-15T11:05:33.456Z,64.01
2022-09-15T11:08:14.653Z,60.80
2022-09-15T11:10:47.126Z,61.59
2022-09-15T11:13:20.593Z,60.58
2022-09-15T11:15:56.934Z,63.98
2022-09-15T11:18:37.343Z,63.74
2022-09-15T11:21:12.991Z,62.71
2022-09-15T11:23:46.287Z,61.97
2022-09-15T11:26:21.216Z,61.94
2022-09-15T11:28:54.782Z,60.20
2022-09-15T11:31:23.745Z,59.72
2022-09-15T11:33:59.874Z,63.80
2022-09-15T11:36:32.763Z,65.22
2022-09-15T11:39:07.944Z,64.25
2022-09-15T11:41:41.705Z,59.61
2022-09-15T11:44:19.487Z,61.37
2022-09-15T11:46:57.839Z,64.53
2022-09-15T11:49:29.923Z,61.62
2022-09-15T11:52:04.649Z,60.94
2022-09-15T11:54:38.716Z,59.40
2022-09-15T11:57:16.742Z,61.80
2022-09-15T11:59:51.555Z,63.73
2022-09-15T12:02:25.536Z,63.03
2022-09-15T12:05:03.757Z,60.27
2022-09-15T12:07:37.459Z,59.98
2022-09-15T12:10:14.751Z,62.05
2022-09-15T12:12:46.715Z,60.99
2022-09-15T12:15:18.738Z,62.45
2022-09-15T12:17:53.651Z,61.81
2022-09-15T12:20:26.485Z,60.09
2022-09-15T12:22:55.887Z,60.32
2022-09-15T12:25:28.363Z,62.97
2022-09-15T12:28:16.209Z,64.63
2022-09-15T12:30:47.442Z,61.45
2022-09-15T12:33:34.558Z,60.50
2022-09-15T12:36:19.009Z,61.95
2022-09-15T12:38:50.763Z,62.13
2022-09-15T12:41:21.713Z,60.37
2022-09-15T12:43:54.866Z,59.70
2022-09-15T12:46:23.719Z,58.81
2022-09-15T12:48:58.152Z,63.60
2022-09-15T12:51:29.350Z,63.85
2022-09-15T12:54:03.207Z,62.26
2022-09-15T12:56:34.632Z,62.01
2022-09-15T12:59:07.160Z,61.13
2022-09-15T13:01:49.783Z,59.47
2022-09-15T13:04:28.725Z,59.14
2022-09-15T13:07:16.455Z,62.92
2022-09-15T13:09:57.325Z,63.47
2022-09-15T13:12:30.720Z,62.78
2022-09-15T13:15:03.708Z,62.30
2022-09-15T13:17:34.913Z,60.84
2022-09-15T13:20:13.530Z,60.67
2022-09-15T13:22:48.421Z,60.56
2022-09-15T13:25:22.770Z,58.86
2022-09-15T13:27:55.902Z,63.30
2022-09-15T13:30:32.421Z,65.42
2022-09-15T13:33:06.398Z,62.76
2022-09-15T13:35:54.192Z,61.35
2022-09-15T13:38:46.926Z,61.37
2022-09-15T13:41:44.508Z,59.67
2022-09-15T13:44:31.460Z,61.66
2022-09-15T13:47:10.062Z,64.22
2022-09-15T13:49:48.278Z,62.70
2022-09-15T13:52:33.744Z,60.65
2022-09-15T13:55:11.484Z,61.87
2022-09-15T14:00:35.461Z,61.10
2022-09-15T14:03:10.725Z,58.49
2022-09-15T14:05:41.301Z,61.43
2022-09-15T14:08:15.324Z,63.21
2022-09-15T14:10:48.255Z,62.68
2022-09-15T14:13:22.981Z,62.00
2022-09-15T14:15:59.286Z,62.09
2022-09-15T14:18:30.349Z,61.56
2022-09-15T14:21:02.163Z,61.29
2022-09-15T14:23:33.341Z,61.04
2022-09-15T14:26:04.241Z,59.15
2022-09-15T14:28:35.522Z,59.99
2022-09-15T14:31:05.735Z,63.56
2022-09-15T14:33:38.472Z,65.01
2022-09-15T14:36:15.959Z,64.39
2022-09-15T14:39:03.190Z,62.48
2022-09-15T14:41:34.571Z,61.89
2022-09-15T14:45:53.030Z,62.18
2022-09-15T14:47:06.985Z,61.40
2022-09-15T14:49:38.112Z,60.69
2022-09-15T14:52:17.239Z,59.93
2022-09-15T14:54:47.986Z,60.44
2022-09-15T14:57:20.602Z,60.78
2022-09-15T14:59:53.901Z,60.86
2022-09-15T15:02:28.439Z,60.18
2022-09-15T15:04:59.993Z,60.43
2022-09-15T15:07:33.276Z,61.33
2022-09-15T15:10:06.324Z,61.58
2022-09-15T15:12:38.626Z,62.18
2022-09-15T15:15:11.829Z,62.73
2022-09-15T15:17:43.892Z,62.97
2022-09-15T15:20:16.802Z,63.11
2022-09-15T15:22:47.738Z,62.72
2022-09-15T15:25:29.516Z,62.59
2022-09-15T15:28:00.574Z,63.24
2022-09-15T15:30:36.356Z,63.04
2022-09-15T15:33:07.915Z,62.52
2022-09-15T15:35:38.924Z,62.08
2022-09-15T15:38:14.882Z,61.64
2022-09-15T15:40:46.325Z,62.64
2022-09-15T15:43:22.481Z,63.76
2022-09-15T15:45:58.822Z,64.59
2022-09-15T15:48:34.023Z,65.02
2022-09-15T15:51:09.651Z,63.51
2022-09-15T15:53:40.361Z,63.66
2022-09-15T15:56:11.311Z,65.26
2022-09-15T15:58:42.142Z,66.04
2022-09-15T16:01:13.208Z,66.33
2022-09-15T16:03:43.603Z,65.70
2022-09-15T16:06:14.828Z,65.12
2022-09-15T16:08:46.096Z,65.46
2022-09-15T16:11:17.450Z,65.74
2022-09-15T16:13:48.483Z,66.20
2022-09-15T16:16:21.621Z,65.67
2022-09-15T16:18:50.284Z,66.02
2022-09-15T16:21:22.014Z,66.39
2022-09-15T16:23:52.738Z,66.49
2022-09-15T16:26:24.836Z,66.97
2022-09-15T16:28:55.242Z,66.63
2022-09-15T16:31:26.424Z,66.78
2022-09-15T16:33:56.721Z,66.76
2022-09-15T16:36:28.052Z,65.83
2022-09-15T16:38:58.277Z,65.13
2022-09-15T16:41:29.724Z,64.69
2022-09-15T16:44:00.044Z,65.76
2022-09-15T16:46:32.734Z,66.17
2022-09-15T16:49:03.052Z,66.25
2022-09-15T16:51:33.985Z,66.38
2022-09-15T16:54:04.519Z,67.35
2022-09-15T16:56:35.348Z,67.07
2022-09-15T16:59:05.880Z,66.65
2022-09-15T17:01:36.502Z,66.49
2022-09-15T17:04:12.814Z,66.11
2022-09-15T17:06:43.503Z,65.77
2022-09-15T17:09:14.889Z,65.94
2022-09-15T17:11:45.435Z,65.83
2022-09-15T17:14:18.028Z,65.17
2022-09-15T17:16:53.194Z,66.39
2022-09-15T17:19:23.969Z,67.34
2022-09-15T17:21:54.798Z,68.34
2022-09-15T17:24:26.006Z,68.22
2022-09-15T17:26:56.949Z,68.08
2022-09-15T17:29:27.611Z,68.42
2022-09-15T17:31:58.115Z,68.54
2022-09-15T17:34:28.537Z,69.17
2022-09-15T17:36:59.958Z,69.56
2022-09-15T17:39:30.225Z,69.68
2022-09-15T17:44:37.746Z,69.16
2022-09-15T17:47:08.698Z,68.87
2022-09-15T17:49:39.379Z,68.63
2022-09-15T17:52:10.366Z,68.12
2022-09-15T17:54:41.160Z,66.70
2022-09-15T17:57:11.783Z,66.72
2022-09-15T17:59:42.208Z,66.86
2022-09-15T18:02:18.711Z,67.86
2022-09-15T18:04:49.532Z,67.22
2022-09-15T18:07:23.835Z,67.03
2022-09-15T18:09:55.998Z,66.23
2022-09-15T18:12:26.835Z,66.74
2022-09-15T18:14:57.469Z,64.59
2022-09-15T18:17:28.405Z,64.90
2022-09-15T18:19:58.825Z,64.11
2022-09-15T18:22:29.460Z,65.29
2022-09-15T18:25:00.194Z,66.90
2022-09-15T18:27:30.925Z,66.10
2022-09-15T18:30:01.578Z,64.69
2022-09-15T18:32:33.824Z,65.36
2022-09-15T18:35:04.677Z,65.01
2022-09-15T18:37:35.596Z,65.57
2022-09-15T18:40:08.763Z,64.85
2022-09-15T18:42:38.396Z,63.70
2022-09-15T18:45:10.589Z,62.76
2022-09-15T18:47:42.942Z,62.68
2022-09-15T18:50:14.284Z,63.08
2022-09-15T18:52:44.915Z,63.26
2022-09-15T18:55:16.420Z,62.69
2022-09-15T18:57:47.912Z,63.68
2022-09-15T19:00:19.874Z,62.77
2022-09-15T19:02:50.763Z,64.08
2022-09-15T19:05:24.320Z,63.27
2022-09-15T19:07:55.597Z,63.04
2022-09-15T19:10:27.322Z,63.17
2022-09-15T19:12:57.947Z,64.30
2022-09-15T19:15:29.393Z,65.17
2022-09-15T19:17:59.948Z,63.90
2022-09-15T19:20:30.315Z,62.54
2022-09-15T19:23:01.086Z,62.98
2022-09-15T19:25:31.908Z,63.37
2022-09-15T19:28:05.423Z,63.09
2022-09-15T19:30:36.191Z,62.54
2022-09-15T19:33:07.190Z,62.72
2022-09-15T19:35:37.621Z,64.04
2022-09-15T19:38:08.055Z,65.34
2022-09-15T19:40:38.486Z,66.61
2022-09-15T19:43:10.836Z,65.68
2022-09-15T19:45:43.965Z,63.63
2022-09-15T19:48:14.560Z,63.92
2022-09-15T19:50:45.358Z,63.50
2022-09-15T19:53:15.924Z,64.59
2022-09-15T19:55:51.568Z,63.86
2022-09-15T19:58:21.996Z,64.29
2022-09-15T20:00:56.971Z,62.50
2022-09-15T20:03:29.498Z,62.78
2022-09-15T20:06:01.722Z,64.61
2022-09-15T20:08:36.440Z,63.57
2022-09-15T20:11:11.225Z,64.06
2022-09-15T20:13:43.911Z,65.01
2022-09-15T20:16:16.990Z,64.93
2022-09-15T20:18:50.091Z,64.59
2022-09-15T20:21:45.980Z,65.34
2022-09-15T20:24:18.134Z,64.93
2022-09-15T20:26:50.014Z,66.08
2022-09-15T20:29:21.517Z,65.56
2022-09-15T20:31:53.103Z,65.84
2022-09-15T20:34:26.558Z,65.76
2022-09-15T20:36:58.683Z,65.20
2022-09-15T20:39:30.156Z,63.02
2022-09-15T20:42:01.956Z,63.19
2022-09-15T20:44:33.594Z,62.93
2022-09-15T20:47:05.033Z,64.81
2022-09-15T20:49:36.460Z,63.93
2022-09-15T20:52:07.522Z,63.68
2022-09-15T20:54:38.402Z,64.30
2022-09-15T20:57:09.895Z,64.04
2022-09-15T20:59:41.510Z,63.95
2022-09-15T21:02:13.070Z,64.35
2022-09-15T21:04:44.236Z,64.69
2022-09-15T21:07:15.620Z,64.95
2022-09-15T21:09:46.724Z,64.73
2022-09-15T21:12:17.763Z,63.57
2022-09-15T21:14:48.472Z,64.10
2022-09-15T21:17:20.026Z,63.76
2022-09-15T21:19:50.642Z,63.41
2022-09-15T21:22:23.096Z,63.60
2022-09-15T21:24:54.396Z,63.50
2022-09-15T21:27:28.128Z,63.94
2022-09-15T21:29:59.386Z,63.76
2022-09-15T21:32:30.792Z,63.49
2022-09-15T21:35:01.561Z,62.61
2022-09-15T21:37:32.431Z,63.23
2022-09-15T21:40:03.908Z,63.03
2022-09-15T21:42:35.026Z,63.90
2022-09-15T21:45:07.111Z,64.14
2022-09-15T21:47:38.040Z,63.78
2022-09-15T21:50:09.663Z,64.93
2022-09-15T21:52:40.735Z,64.97
2022-09-15T21:55:12.082Z,64.61
2022-09-15T21:57:43.130Z,64.14
2022-09-15T22:00:15.196Z,64.10
2022-09-15T22:02:46.307Z,62.22
2022-09-15T22:05:17.187Z,64.39
2022-09-15T22:07:48.753Z,62.62
2022-09-15T22:10:19.678Z,62.93
2022-09-15T22:12:54.447Z,63.06
2022-09-15T22:15:26.167Z,62.44
2022-09-15T22:17:57.617Z,61.85
2022-09-15T22:20:28.955Z,61.97
2022-09-15T22:23:01.479Z,62.83
2022-09-15T22:25:32.181Z,62.49
2022-09-15T22:28:03.570Z,63.21
2022-09-15T22:30:34.461Z,62.16
2022-09-15T22:33:05.546Z,60.88
2022-09-15T22:35:36.302Z,62.35
2022-09-15T22:38:07.398Z,62.04
2022-09-15T22:40:38.343Z,62.46
2022-09-15T22:43:09.276Z,62.20
2022-09-15T22:45:40.384Z,62.13
2022-09-15T22:48:11.238Z,62.41
2022-09-15T22:50:44.818Z,62.50
2022-09-15T22:53:16.383Z,63.03
2022-09-15T22:55:47.260Z,62.06
2022-09-15T22:58:18.057Z,61.76
2022-09-15T23:00:48.980Z,61.31
2022-09-15T23:03:19.768Z,61.94
2022-09-15T23:05:57.623Z,62.25
2022-09-15T23:08:28.352Z,62.08
2022-09-15T23:11:03.536Z,61.92
2022-09-15T23:13:34.137Z,63.36
2022-09-15T23:16:06.134Z,61.64
2022-09-15T23:18:36.522Z,62.91
2022-09-15T23:21:08.320Z,62.48
2022-09-15T23:23:39.517Z,61.90
2022-09-15T23:26:11.646Z,62.05
2022-09-15T23:28:42.002Z,61.59
2022-09-15T23:31:13.446Z,62.45
2022-09-15T23:33:43.981Z,61.69
2022-09-15T23:36:16.063Z,61.36
2022-09-15T23:38:46.905Z,60.75
2022-09-15T23:41:18.233Z,61.43
2022-09-15T23:43:48.756Z,62.14
2022-09-15T23:46:20.215Z,61.95
2022-09-15T23:48:50.940Z,61.24
2022-09-15T23:51:22.496Z,61.44
2022-09-15T23:53:52.932Z,61.36
2022-09-15T23:56:23.909Z,61.16
2022-09-15T23:58:54.178Z,61.14
